Search METAR Data

METAR Data for ENRM:

ENRM 220420Z 07003KT 030V110 CAVOK 13/08 Q1020